Vidfoss — V2QK4 — position and weather

sailwx.info

Track history (hours):
 
Tides and Currents Weather Stations Pressure Air Temp Water Temp Dewpoint Dewpoint Depression Visibility Wind Speed Wind Dir Waves Ship Positions

Vidfoss

Last reported at 2016-Jul-24 23:33 UTC. Time now 2016-Jul-27 15:22 UTC.
Position N 63°41' E 009°30'.

Length 93 m; draft 4.6 m.

Type: Cargo ship. MMSI: 305846000.

Date/timePositionNaut miles runAvg speedWind from/ knotsBaromVisibWave heightAir tempDewpointWater temp
2016-Jul-24 23:33N 63°41' E 009°30'303 8.7
2016-Jul-23 12:34N 59°06' E 005°03'1110.9
2016-Jul-23 11:34N 59°07' E 005°24'1110.7
2016-Jul-23 10:33N 59°02' E 005°43'5 5.1
2016-Jul-23 09:33N 58°57' E 005°45'0 0.0
2016-Jul-23 08:34N 58°57' E 005°45'0 0.0
2016-Jul-23 07:34N 58°57' E 005°45'5 5.3
2016-Jul-23 06:33N 59°02' E 005°45'2010.0
2016-Jul-23 04:33N 58°45' E 005°24'36012.0
2016-Jul-21 22:33N 52°47' E 004°28'1111.1
2016-Jul-21 21:33N 52°36' E 004°30'9 8.4
2016-Jul-21 20:33N 52°28' E 004°34'3 3.1
2016-Jul-21 19:28N 52°28' E 004°40'0 0.0
2016-Jul-21 18:32N 52°28' E 004°40'0 0.0
2016-Jul-21 17:29N 52°28' E 004°40'0 0.0
2016-Jul-21 16:33N 52°28' E 004°40'0 0.0
2016-Jul-21 15:33N 52°28' E 004°40'0 0.0
2016-Jul-21 14:33N 52°28' E 004°40'0 0.0
2016-Jul-21 13:33N 52°28' E 004°40'0 0.0
2016-Jul-21 12:33N 52°28' E 004°40'0 0.0
2016-Jul-21 11:34N 52°28' E 004°40'0 0.0
2016-Jul-21 10:33N 52°28' E 004°40'0 0.0
2016-Jul-21 09:33N 52°28' E 004°40'0 0.0
2016-Jul-21 08:33N 52°28' E 004°40'0 0.0
2016-Jul-21 07:33N 52°28' E 004°40'0 0.0
2016-Jul-21 06:33N 52°28' E 004°40'0 0.0
2016-Jul-21 05:33N 52°28' E 004°40'0 0.0
2016-Jul-21 04:33N 52°28' E 004°40'0 0.0
2016-Jul-21 03:33N 52°28' E 004°40'0 0.0
2016-Jul-21 02:33N 52°28' E 004°40'0 0.0
2016-Jul-21 01:34N 52°28' E 004°40'0 0.0
2016-Jul-21 00:33N 52°28' E 004°40'0 0.0
2016-Jul-20 23:33N 52°28' E 004°40'0 0.0
2016-Jul-20 22:33N 52°28' E 004°40'0 0.0
2016-Jul-20 21:33N 52°28' E 004°40'0 0.0
2016-Jul-20 20:33N 52°28' E 004°40'0 0.0
2016-Jul-20 19:33N 52°28' E 004°40'0 0.0
2016-Jul-20 18:33N 52°28' E 004°40'0 0.0
2016-Jul-20 17:33N 52°28' E 004°40'0 0.0
2016-Jul-20 16:33N 52°28' E 004°40'0 0.0
2016-Jul-20 15:33N 52°28' E 004°40'0 0.0
2016-Jul-20 14:33N 52°28' E 004°40'0 0.0
2016-Jul-20 13:33N 52°28' E 004°40'0 0.0
2016-Jul-20 12:33N 52°28' E 004°40'0 0.0
2016-Jul-20 11:33N 52°28' E 004°40'0 0.0
2016-Jul-20 10:33N 52°28' E 004°40'0 0.0
2016-Jul-20 09:33N 52°28' E 004°40'0 0.0
2016-Jul-20 08:33N 52°28' E 004°40'0 0.0
2016-Jul-20 07:33N 52°28' E 004°40'0 0.0
2016-Jul-20 06:34N 52°28' E 004°40'0 0.0
2016-Jul-20 05:33N 52°28' E 004°40'0 0.0
2016-Jul-20 04:33N 52°28' E 004°40'0 0.0
2016-Jul-20 03:33N 52°28' E 004°40'0 0.0
2016-Jul-20 02:33N 52°28' E 004°40'0 0.0
2016-Jul-20 01:33N 52°28' E 004°40'0 0.0
2016-Jul-20 00:33N 52°28' E 004°40'0 0.0
2016-Jul-19 23:33N 52°28' E 004°40'0 0.0
2016-Jul-19 22:33N 52°28' E 004°40'0 0.0
2016-Jul-19 20:33N 52°28' E 004°40'0 0.0
2016-Jul-19 19:33N 52°28' E 004°40'0 0.0
2016-Jul-19 18:33N 52°28' E 004°40'0 0.0
2016-Jul-19 17:33N 52°28' E 004°40'0 0.0
2016-Jul-19 16:33N 52°28' E 004°40'2 2.0
2016-Jul-19 15:33N 52°28' E 004°37'4 3.8
2016-Jul-19 14:33N 52°28' E 004°30'8 7.5
2016-Jul-19 13:33N 52°36' E 004°30'3611.7
2016-Jul-19 10:29N 53°11' E 004°27'1312.9
2016-Jul-19 09:28N 53°24' E 004°34'1212.4
2016-Jul-19 08:33N 53°35' E 004°39'1211.9
2016-Jul-19 07:32N 53°46' E 004°46'4011.7
2016-Jul-19 04:04N 54°26' E 004°58'  
Track history (hours):
 
Tides and Currents Weather Stations Pressure Air Temp Water Temp Dewpoint Dewpoint Depression Visibility Wind Speed Wind Dir Waves Ship Positions

Vidfoss

Last reported at 2016-Jul-24 23:33 UTC. Time now 2016-Jul-27 15:22 UTC.
Position N 63°41' E 009°30'.

Length 93 m; draft 4.6 m.

Type: Cargo ship. MMSI: 305846000.

Date/timePositionNaut miles runAvg speedWind from/ knotsBaromVisibWave heightAir tempDewpointWater temp
2016-Jul-24 23:33N 63°41' E 009°30'303 8.7
2016-Jul-23 12:34N 59°06' E 005°03'1110.9
2016-Jul-23 11:34N 59°07' E 005°24'1110.7
2016-Jul-23 10:33N 59°02' E 005°43'5 5.1
2016-Jul-23 09:33N 58°57' E 005°45'0 0.0
2016-Jul-23 08:34N 58°57' E 005°45'0 0.0
2016-Jul-23 07:34N 58°57' E 005°45'5 5.3
2016-Jul-23 06:33N 59°02' E 005°45'2010.0
2016-Jul-23 04:33N 58°45' E 005°24'36012.0
2016-Jul-21 22:33N 52°47' E 004°28'1111.1
2016-Jul-21 21:33N 52°36' E 004°30'9 8.4
2016-Jul-21 20:33N 52°28' E 004°34'3 3.1
2016-Jul-21 19:28N 52°28' E 004°40'0 0.0
2016-Jul-21 18:32N 52°28' E 004°40'0 0.0
2016-Jul-21 17:29N 52°28' E 004°40'0 0.0
2016-Jul-21 16:33N 52°28' E 004°40'0 0.0
2016-Jul-21 15:33N 52°28' E 004°40'0 0.0
2016-Jul-21 14:33N 52°28' E 004°40'0 0.0
2016-Jul-21 13:33N 52°28' E 004°40'0 0.0
2016-Jul-21 12:33N 52°28' E 004°40'0 0.0
2016-Jul-21 11:34N 52°28' E 004°40'0 0.0
2016-Jul-21 10:33N 52°28' E 004°40'0 0.0
2016-Jul-21 09:33N 52°28' E 004°40'0 0.0
2016-Jul-21 08:33N 52°28' E 004°40'0 0.0
2016-Jul-21 07:33N 52°28' E 004°40'0 0.0
2016-Jul-21 06:33N 52°28' E 004°40'0 0.0
2016-Jul-21 05:33N 52°28' E 004°40'0 0.0
2016-Jul-21 04:33N 52°28' E 004°40'0 0.0
2016-Jul-21 03:33N 52°28' E 004°40'0 0.0
2016-Jul-21 02:33N 52°28' E 004°40'0 0.0
2016-Jul-21 01:34N 52°28' E 004°40'0 0.0
2016-Jul-21 00:33N 52°28' E 004°40'0 0.0
2016-Jul-20 23:33N 52°28' E 004°40'0 0.0
2016-Jul-20 22:33N 52°28' E 004°40'0 0.0
2016-Jul-20 21:33N 52°28' E 004°40'0 0.0
2016-Jul-20 20:33N 52°28' E 004°40'0 0.0
2016-Jul-20 19:33N 52°28' E 004°40'0 0.0
2016-Jul-20 18:33N 52°28' E 004°40'0 0.0
2016-Jul-20 17:33N 52°28' E 004°40'0 0.0
2016-Jul-20 16:33N 52°28' E 004°40'0 0.0
2016-Jul-20 15:33N 52°28' E 004°40'0 0.0
2016-Jul-20 14:33N 52°28' E 004°40'0 0.0
2016-Jul-20 13:33N 52°28' E 004°40'0 0.0
2016-Jul-20 12:33N 52°28' E 004°40'0 0.0
2016-Jul-20 11:33N 52°28' E 004°40'0 0.0
2016-Jul-20 10:33N 52°28' E 004°40'0 0.0
2016-Jul-20 09:33N 52°28' E 004°40'0 0.0
2016-Jul-20 08:33N 52°28' E 004°40'0 0.0
2016-Jul-20 07:33N 52°28' E 004°40'0 0.0
2016-Jul-20 06:34N 52°28' E 004°40'0 0.0
2016-Jul-20 05:33N 52°28' E 004°40'0 0.0
2016-Jul-20 04:33N 52°28' E 004°40'0 0.0
2016-Jul-20 03:33N 52°28' E 004°40'0 0.0
2016-Jul-20 02:33N 52°28' E 004°40'0 0.0
2016-Jul-20 01:33N 52°28' E 004°40'0 0.0
2016-Jul-20 00:33N 52°28' E 004°40'0 0.0
2016-Jul-19 23:33N 52°28' E 004°40'0 0.0
2016-Jul-19 22:33N 52°28' E 004°40'0 0.0
2016-Jul-19 20:33N 52°28' E 004°40'0 0.0
2016-Jul-19 19:33N 52°28' E 004°40'0 0.0
2016-Jul-19 18:33N 52°28' E 004°40'0 0.0
2016-Jul-19 17:33N 52°28' E 004°40'0 0.0
2016-Jul-19 16:33N 52°28' E 004°40'2 2.0
2016-Jul-19 15:33N 52°28' E 004°37'4 3.8
2016-Jul-19 14:33N 52°28' E 004°30'8 7.5
2016-Jul-19 13:33N 52°36' E 004°30'3611.7
2016-Jul-19 10:29N 53°11' E 004°27'1312.9
2016-Jul-19 09:28N 53°24' E 004°34'1212.4
2016-Jul-19 08:33N 53°35' E 004°39'1211.9
2016-Jul-19 07:32N 53°46' E 004°46'4011.7
2016-Jul-19 04:04N 54°26' E 004°58'  

Dump ship's entire track history